createdAt,value
2019-02-19T00:01:26.804Z,13.30
2019-02-19T00:03:57.580Z,13.85
2019-02-19T00:06:28.374Z,14.13
2019-02-19T00:08:59.146Z,13.90
2019-02-19T00:11:29.901Z,14.07
2019-02-19T00:14:00.668Z,12.57
2019-02-19T00:16:31.428Z,13.70
2019-02-19T00:19:02.195Z,14.07
2019-02-19T00:21:32.958Z,12.27
2019-02-19T00:24:03.737Z,12.37
2019-02-19T00:26:34.491Z,12.90
2019-02-19T00:29:05.250Z,12.67
2019-02-19T00:31:36.011Z,13.67
2019-02-19T00:34:06.774Z,13.00
2019-02-19T00:36:37.538Z,13.17
2019-02-19T00:39:08.297Z,13.80
2019-02-19T00:41:39.059Z,13.50
2019-02-19T00:44:09.831Z,13.20
2019-02-19T00:46:40.585Z,13.80
2019-02-19T00:49:11.357Z,13.57
2019-02-19T00:51:42.112Z,13.93
2019-02-19T00:54:12.891Z,12.53
2019-02-19T00:56:43.648Z,12.37
2019-02-19T00:59:14.416Z,11.67
2019-02-19T01:01:45.175Z,11.80
2019-02-19T01:04:15.945Z,13.00
2019-02-19T01:06:46.699Z,12.97
2019-02-19T01:09:17.552Z,13.40
2019-02-19T01:11:48.319Z,13.03
2019-02-19T01:14:19.091Z,14.03
2019-02-19T01:16:49.851Z,13.60
2019-02-19T01:19:20.621Z,13.10
2019-02-19T01:21:51.376Z,12.67
2019-02-19T01:24:22.148Z,12.57
2019-02-19T01:26:52.903Z,12.60
2019-02-19T01:29:23.735Z,13.73
2019-02-19T01:31:54.484Z,13.20
2019-02-19T01:34:25.251Z,13.30
2019-02-19T01:36:56.006Z,13.47
2019-02-19T01:39:26.893Z,13.30
2019-02-19T01:41:57.883Z,11.90
2019-02-19T01:44:28.704Z,13.85
2019-02-19T01:46:59.463Z,13.57
2019-02-19T01:49:30.227Z,14.50
2019-02-19T01:52:00.997Z,14.97
2019-02-19T01:54:31.766Z,15.40
2019-02-19T01:57:02.525Z,12.37
2019-02-19T01:59:33.290Z,14.83
2019-02-19T02:02:04.063Z,13.57
2019-02-19T02:04:34.920Z,13.00
2019-02-19T02:07:05.682Z,13.73
2019-02-19T02:09:36.447Z,13.83
2019-02-19T02:12:07.215Z,14.87
2019-02-19T02:14:37.984Z,12.97
2019-02-19T02:17:08.742Z,13.40
2019-02-19T02:19:39.514Z,14.20
2019-02-19T02:22:10.470Z,14.10
2019-02-19T02:24:41.239Z,13.70
2019-02-19T02:27:11.991Z,13.40
2019-02-19T02:29:42.764Z,14.93
2019-02-19T02:32:13.518Z,13.00
2019-02-19T02:34:44.281Z,14.27
2019-02-19T02:37:15.044Z,13.60
2019-02-19T02:39:45.912Z,12.57
2019-02-19T02:42:16.762Z,14.70
2019-02-19T02:44:47.515Z,12.57
2019-02-19T02:47:18.270Z,12.90
2019-02-19T02:49:49.047Z,12.13
2019-02-19T02:52:19.823Z,13.00
2019-02-19T02:54:50.591Z,12.70
2019-02-19T02:57:21.339Z,13.20
2019-02-19T02:59:52.115Z,12.73
2019-02-19T03:02:22.872Z,15.63
2019-02-19T03:04:53.687Z,14.50
2019-02-19T03:07:26.336Z,12.40
2019-02-19T03:09:57.106Z,13.35
2019-02-19T03:12:27.862Z,13.43
2019-02-19T03:14:58.636Z,13.70
2019-02-19T03:17:29.401Z,13.17
2019-02-19T03:20:00.165Z,12.20
2019-02-19T03:22:30.955Z,14.53
2019-02-19T03:25:02.134Z,14.43
2019-02-19T03:27:32.902Z,13.43
2019-02-19T03:30:06.770Z,12.20
2019-02-19T03:32:37.528Z,12.70
2019-02-19T03:35:08.289Z,14.33
2019-02-19T03:37:39.074Z,13.67
2019-02-19T03:40:09.833Z,14.43
2019-02-19T03:42:40.599Z,14.10
2019-02-19T03:45:11.369Z,16.07
2019-02-19T03:47:42.133Z,16.97
2019-02-19T03:50:12.939Z,15.33
2019-02-19T03:52:43.716Z,16.90
2019-02-19T03:55:14.496Z,16.07
2019-02-19T03:57:45.351Z,15.67
2019-02-19T04:00:16.128Z,14.53
2019-02-19T04:02:46.931Z,15.83
2019-02-19T04:05:17.700Z,15.30
2019-02-19T04:07:48.467Z,14.70
2019-02-19T04:10:19.234Z,14.80
2019-02-19T04:12:49.997Z,15.70
2019-02-19T04:15:20.777Z,16.33
2019-02-19T04:17:51.516Z,16.10
2019-02-19T04:20:22.286Z,14.37
2019-02-19T04:22:53.043Z,17.07
2019-02-19T04:25:23.805Z,15.40
2019-02-19T04:27:54.564Z,15.60
2019-02-19T04:30:25.324Z,15.70
2019-02-19T04:32:56.088Z,15.43
2019-02-19T04:35:26.864Z,15.47
2019-02-19T04:37:57.749Z,14.43
2019-02-19T04:40:28.521Z,17.10
2019-02-19T04:42:59.279Z,16.13
2019-02-19T04:45:30.052Z,17.70
2019-02-19T04:48:00.805Z,14.77
2019-02-19T04:50:31.685Z,16.07
2019-02-19T04:53:02.456Z,15.80
2019-02-19T04:55:33.215Z,15.00
2019-02-19T04:58:03.979Z,16.00
2019-02-19T05:00:34.773Z,15.70
2019-02-19T05:03:06.042Z,16.53
2019-02-19T05:05:38.953Z,17.87
2019-02-19T05:08:09.745Z,16.97
2019-02-19T05:10:40.519Z,18.00
2019-02-19T05:13:11.268Z,18.30
2019-02-19T05:15:42.036Z,18.60
2019-02-19T05:18:12.789Z,17.77
2019-02-19T05:20:43.555Z,16.53
2019-02-19T05:23:14.315Z,16.77
2019-02-19T05:25:45.082Z,15.80
2019-02-19T05:28:15.850Z,18.27
2019-02-19T05:30:46.691Z,14.60
2019-02-19T05:33:17.467Z,17.80
2019-02-19T05:35:48.213Z,16.90
2019-02-19T05:38:18.972Z,15.10
2019-02-19T05:40:49.741Z,17.03
2019-02-19T05:43:20.502Z,16.90
2019-02-19T05:45:51.282Z,15.23
2019-02-19T05:48:22.051Z,15.90
2019-02-19T05:50:52.826Z,16.53
2019-02-19T05:53:23.601Z,17.80
2019-02-19T05:55:54.367Z,15.93
2019-02-19T05:58:25.131Z,18.37
2019-02-19T06:00:55.900Z,15.53
2019-02-19T06:03:26.652Z,16.20
2019-02-19T06:05:57.479Z,17.03
2019-02-19T06:08:28.236Z,17.40
2019-02-19T06:10:59.001Z,16.53
2019-02-19T06:13:29.756Z,16.30
2019-02-19T06:16:00.552Z,17.37
2019-02-19T06:18:31.307Z,16.20
2019-02-19T06:21:02.081Z,16.47
2019-02-19T06:23:32.837Z,15.27
2019-02-19T06:26:03.612Z,16.83
2019-02-19T06:28:34.364Z,16.37
2019-02-19T06:31:05.137Z,16.10
2019-02-19T06:33:35.895Z,15.33
2019-02-19T06:36:06.674Z,17.10
2019-02-19T06:38:37.432Z,16.93
2019-02-19T06:41:08.196Z,17.07
2019-02-19T06:43:38.951Z,17.77
2019-02-19T06:46:09.747Z,16.17
2019-02-19T06:48:40.514Z,18.50
2019-02-19T06:51:11.276Z,20.43
2019-02-19T06:53:42.044Z,18.07
2019-02-19T06:56:12.830Z,18.50
2019-02-19T06:58:43.574Z,20.20
2019-02-19T07:01:16.311Z,21.93
2019-02-19T07:03:51.487Z,22.62
2019-02-19T07:06:22.263Z,23.12
2019-02-19T07:08:53.031Z,22.73
2019-02-19T07:11:23.791Z,21.97
2019-02-19T07:13:54.551Z,21.87
2019-02-19T07:16:25.320Z,21.97
2019-02-19T07:18:56.092Z,22.10
2019-02-19T07:21:26.858Z,22.70
2019-02-19T07:24:04.353Z,21.60
2019-02-19T07:26:30.553Z,23.20
2019-02-19T07:29:01.314Z,21.10
2019-02-19T07:31:32.071Z,20.13
2019-02-19T07:34:02.843Z,33.87
2019-02-19T07:36:33.605Z,19.77
2019-02-19T07:39:04.474Z,19.87
2019-02-19T07:41:35.305Z,18.90
2019-02-19T07:44:06.082Z,19.47
2019-02-19T07:46:36.839Z,19.60
2019-02-19T07:49:07.609Z,18.50
2019-02-19T07:51:38.369Z,21.60
2019-02-19T07:54:09.451Z,20.20
2019-02-19T07:56:40.209Z,18.02
2019-02-19T07:59:10.980Z,18.90
2019-02-19T08:01:41.735Z,17.47
2019-02-19T08:04:12.519Z,19.30
2019-02-19T08:06:43.304Z,20.37
2019-02-19T08:09:14.068Z,19.90
2019-02-19T08:11:44.830Z,20.47
2019-02-19T08:14:15.600Z,20.10
2019-02-19T08:16:46.391Z,19.30
2019-02-19T08:19:17.408Z,20.37
2019-02-19T08:21:48.269Z,18.92
2019-02-19T08:24:19.088Z,19.13
2019-02-19T08:26:49.828Z,19.47
2019-02-19T08:29:20.598Z,17.43
2019-02-19T08:31:51.365Z,19.27
2019-02-19T08:34:22.138Z,18.20
2019-02-19T08:36:52.929Z,18.20
2019-02-19T08:39:23.687Z,18.13
2019-02-19T08:41:54.447Z,18.10
2019-02-19T08:44:25.526Z,18.00
2019-02-19T08:46:56.550Z,19.20
2019-02-19T08:49:27.328Z,17.05
2019-02-19T08:51:58.075Z,17.13
2019-02-19T08:54:28.851Z,19.20
2019-02-19T08:56:59.680Z,16.57
2019-02-19T08:59:30.460Z,17.03
2019-02-19T09:02:01.221Z,17.83
2019-02-19T09:04:31.999Z,17.27
2019-02-19T09:07:03.856Z,16.30
2019-02-19T09:09:34.693Z,17.12
2019-02-19T09:12:05.521Z,16.07
2019-02-19T09:14:36.360Z,16.60
2019-02-19T09:17:07.189Z,16.30
2019-02-19T09:19:38.038Z,16.83
2019-02-19T09:22:08.856Z,16.43
2019-02-19T09:24:39.704Z,16.83
2019-02-19T09:27:10.531Z,16.43
2019-02-19T09:29:41.380Z,16.30
2019-02-19T09:32:12.259Z,15.73
2019-02-19T09:34:43.063Z,15.10
2019-02-19T09:37:13.835Z,16.73
2019-02-19T09:39:44.599Z,18.17
2019-02-19T09:42:15.765Z,14.30
2019-02-19T09:44:46.540Z,15.63
2019-02-19T09:47:17.326Z,14.43
2019-02-19T09:49:48.119Z,17.03
2019-02-19T09:52:19.219Z,15.77
2019-02-19T09:54:49.999Z,15.32
2019-02-19T09:57:20.749Z,15.40
2019-02-19T09:59:51.520Z,15.87
2019-02-19T10:02:22.334Z,16.47
2019-02-19T10:04:53.116Z,14.57
2019-02-19T10:07:23.874Z,14.60
2019-02-19T10:09:54.657Z,14.37
2019-02-19T10:12:25.418Z,15.27
2019-02-19T10:14:56.185Z,15.80
2019-02-19T10:17:26.941Z,15.77
2019-02-19T10:19:57.707Z,14.60
2019-02-19T10:22:28.540Z,15.10
2019-02-19T10:24:59.409Z,17.10
2019-02-19T10:27:30.429Z,15.67
2019-02-19T10:30:01.199Z,16.02
2019-02-19T10:32:31.962Z,16.80
2019-02-19T10:35:04.446Z,15.13
2019-02-19T10:37:45.750Z,15.75
2019-02-19T10:40:17.627Z,15.60
2019-02-19T10:42:48.639Z,14.53
2019-02-19T10:45:24.180Z,17.20
2019-02-19T10:47:54.950Z,15.53
2019-02-19T10:50:25.725Z,15.70
2019-02-19T10:52:56.501Z,15.50
2019-02-19T10:55:27.265Z,14.90
2019-02-19T10:57:58.028Z,16.00
2019-02-19T11:00:28.799Z,15.10
2019-02-19T11:02:59.555Z,14.47
2019-02-19T11:05:30.328Z,15.73
2019-02-19T11:08:01.086Z,15.43
2019-02-19T11:10:31.857Z,15.90
2019-02-19T11:13:02.628Z,15.80
2019-02-19T11:15:33.380Z,16.80
2019-02-19T11:18:04.197Z,15.83
2019-02-19T11:20:34.961Z,13.47
2019-02-19T11:23:05.729Z,13.90
2019-02-19T11:25:36.487Z,13.73
2019-02-19T11:28:07.254Z,12.17
2019-02-19T11:30:38.115Z,12.97
2019-02-19T11:33:08.884Z,12.80
2019-02-19T11:35:39.652Z,12.63
2019-02-19T11:38:10.451Z,11.80
2019-02-19T11:40:41.205Z,12.90
2019-02-19T11:43:11.989Z,12.97
2019-02-19T11:45:42.750Z,12.27
2019-02-19T11:48:13.868Z,12.80
2019-02-19T11:50:44.646Z,13.43
2019-02-19T11:53:15.418Z,13.60
2019-02-19T11:55:46.172Z,11.50
2019-02-19T11:58:16.954Z,12.47
2019-02-19T12:00:47.706Z,11.40
2019-02-19T12:03:18.484Z,11.40
2019-02-19T12:05:49.238Z,11.17
2019-02-19T12:08:20.012Z,12.60
2019-02-19T12:10:50.783Z,13.33
2019-02-19T12:13:21.548Z,12.37
2019-02-19T12:15:52.343Z,11.03
2019-02-19T12:18:23.117Z,12.90
2019-02-19T12:20:54.693Z,11.90
2019-02-19T12:23:25.483Z,11.70
2019-02-19T12:25:56.242Z,10.40
2019-02-19T12:28:27.018Z,13.53
2019-02-19T12:30:57.775Z,11.33
2019-02-19T12:33:28.564Z,12.10
2019-02-19T12:35:59.323Z,12.10
2019-02-19T12:38:30.126Z,11.57
2019-02-19T12:41:00.890Z,10.90
2019-02-19T12:43:31.666Z,12.07
2019-02-19T12:46:02.440Z,11.50
2019-02-19T12:48:33.244Z,12.00
2019-02-19T12:51:04.007Z,10.63
2019-02-19T12:53:34.801Z,11.07
2019-02-19T12:56:05.559Z,11.20
2019-02-19T12:58:36.327Z,11.40
2019-02-19T13:01:07.096Z,11.50
2019-02-19T13:03:37.860Z,11.60
2019-02-19T13:06:08.633Z,11.10
2019-02-19T13:08:39.517Z,11.70
2019-02-19T13:11:10.298Z,10.20
2019-02-19T13:13:41.072Z,10.13
2019-02-19T13:16:11.835Z,10.27
2019-02-19T13:18:42.606Z,9.83
2019-02-19T13:21:13.377Z,10.50
2019-02-19T13:23:44.143Z,11.27
2019-02-19T13:26:14.902Z,9.50
2019-02-19T13:28:45.672Z,9.90
2019-02-19T13:31:16.655Z,10.20
2019-02-19T13:33:47.520Z,10.20
2019-02-19T13:36:18.295Z,9.93
2019-02-19T13:38:49.056Z,9.67
2019-02-19T13:41:19.816Z,9.60
2019-02-19T13:43:50.597Z,10.90
2019-02-19T13:46:21.361Z,9.23
2019-02-19T13:48:52.122Z,11.03
2019-02-19T13:51:22.882Z,9.73
2019-02-19T13:53:58.372Z,9.87
2019-02-19T13:56:29.122Z,8.60
2019-02-19T13:58:59.912Z,8.60
2019-02-19T14:01:30.699Z,9.50
2019-02-19T14:04:01.448Z,9.20
2019-02-19T14:06:32.252Z,8.90
2019-02-19T14:09:04.503Z,8.47
2019-02-19T14:11:35.268Z,9.40
2019-02-19T14:14:10.459Z,10.23
2019-02-19T14:16:43.122Z,9.30
2019-02-19T14:19:21.185Z,9.23
2019-02-19T14:21:51.271Z,9.10
2019-02-19T14:24:40.823Z,9.53
2019-02-19T14:27:25.667Z,8.90
2019-02-19T14:30:07.005Z,8.83
2019-02-19T14:32:54.463Z,8.80
2019-02-19T14:35:29.939Z,8.40
2019-02-19T14:38:17.528Z,8.40
2019-02-19T14:40:52.973Z,8.20
2019-02-19T14:43:25.643Z,8.37
2019-02-19T14:45:58.325Z,8.03
2019-02-19T14:48:33.794Z,8.70
2019-02-19T14:51:24.587Z,9.30
2019-02-19T14:53:57.260Z,7.10
2019-02-19T14:56:29.938Z,8.70
2019-02-19T14:59:02.609Z,8.80
2019-02-19T15:01:35.284Z,8.07
2019-02-19T15:04:13.608Z,8.47
2019-02-19T15:06:46.270Z,8.30
2019-02-19T15:09:21.722Z,7.40
2019-02-19T15:11:57.156Z,8.77
2019-02-19T15:14:35.385Z,7.53
2019-02-19T15:17:19.885Z,8.10
2019-02-19T15:20:10.359Z,8.87
2019-02-19T15:22:48.687Z,7.47
2019-02-19T15:25:21.355Z,7.50
2019-02-19T15:28:09.124Z,8.27
2019-02-19T15:30:57.168Z,8.30
2019-02-19T15:33:35.652Z,8.10
2019-02-19T15:36:20.388Z,8.27
2019-02-19T15:38:58.598Z,7.60
2019-02-19T15:41:36.946Z,7.60
2019-02-19T15:44:09.702Z,7.47
2019-02-19T15:46:42.396Z,7.20
2019-02-19T15:49:31.615Z,8.00
2019-02-19T15:52:04.340Z,7.60
2019-02-19T15:54:40.055Z,7.47
2019-02-19T15:57:21.858Z,7.17
2019-02-19T16:00:00.625Z,7.80
2019-02-19T16:02:35.954Z,6.73
2019-02-19T16:05:14.540Z,8.17
2019-02-19T16:07:52.747Z,7.80
2019-02-19T16:10:28.202Z,13.90
2019-02-19T16:13:09.766Z,15.93
2019-02-19T16:15:54.505Z,16.30
2019-02-19T16:18:30.245Z,18.27
2019-02-19T16:21:05.768Z,14.90
2019-02-19T16:23:47.448Z,15.77
2019-02-19T16:26:28.977Z,16.57
2019-02-19T16:29:19.650Z,16.87
2019-02-19T16:32:07.163Z,17.80
2019-02-19T16:34:46.432Z,16.80
2019-02-19T16:37:34.441Z,16.15
2019-02-19T16:40:19.998Z,18.82
2019-02-19T16:42:55.395Z,15.30
2019-02-19T16:45:30.752Z,17.70
2019-02-19T16:48:09.386Z,12.00
2019-02-19T16:50:51.427Z,9.15
2019-02-19T16:53:35.883Z,7.60
2019-02-19T16:56:08.583Z,5.50
2019-02-19T16:58:47.094Z,7.33
2019-02-19T17:01:37.636Z,6.05
2019-02-19T17:04:13.090Z,6.03
2019-02-19T17:07:02.703Z,5.93
2019-02-19T17:09:35.415Z,6.40
2019-02-19T17:12:08.078Z,6.05
2019-02-19T17:14:40.786Z,5.70
2019-02-19T17:17:13.466Z,6.28
2019-02-19T17:20:02.838Z,7.10
2019-02-19T17:22:38.289Z,7.05
2019-02-19T17:25:19.561Z,7.03
2019-02-19T17:27:52.286Z,6.65
2019-02-19T17:30:24.971Z,7.67
2019-02-19T17:33:06.234Z,7.17
2019-02-19T17:35:38.922Z,7.70
2019-02-19T17:38:17.437Z,7.67
2019-02-19T17:41:04.964Z,8.55
2019-02-19T17:43:54.035Z,7.70
2019-02-19T17:46:29.630Z,8.03
2019-02-19T17:49:02.309Z,8.33
2019-02-19T17:51:51.391Z,8.15
2019-02-19T17:54:29.949Z,9.00
2019-02-19T17:57:02.613Z,8.88
2019-02-19T17:59:35.287Z,7.47
2019-02-19T18:02:26.499Z,9.58
2019-02-19T18:05:08.488Z,9.03
2019-02-19T18:07:41.158Z,9.13
2019-02-19T18:10:16.349Z,7.95
2019-02-19T18:13:05.422Z,8.63
2019-02-19T18:15:54.777Z,9.03
2019-02-19T18:18:36.331Z,9.05
2019-02-19T18:21:07.129Z,8.60
2019-02-19T18:23:37.884Z,9.40
2019-02-19T18:26:08.660Z,9.83
2019-02-19T18:28:39.418Z,9.60
2019-02-19T18:31:10.191Z,9.33
2019-02-19T18:33:40.964Z,10.73
2019-02-19T18:36:11.829Z,9.47
2019-02-19T18:38:42.605Z,10.00
2019-02-19T18:41:13.374Z,9.43
2019-02-19T18:43:44.158Z,10.00
2019-02-19T18:46:14.946Z,10.30
2019-02-19T18:48:45.715Z,9.53
2019-02-19T18:51:16.489Z,9.30
2019-02-19T18:53:47.257Z,9.57
2019-02-19T18:56:18.027Z,10.93
2019-02-19T18:58:48.793Z,11.87
2019-02-19T19:01:19.559Z,9.20
2019-02-19T19:03:50.325Z,9.60
2019-02-19T19:06:21.105Z,9.50
2019-02-19T19:08:51.871Z,10.93
2019-02-19T19:11:22.626Z,9.73
2019-02-19T19:13:53.383Z,10.53
2019-02-19T19:16:24.160Z,9.80
2019-02-19T19:18:54.937Z,10.97
2019-02-19T19:21:25.708Z,10.97
2019-02-19T19:23:56.462Z,10.60
2019-02-19T19:26:27.228Z,9.47
2019-02-19T19:28:57.993Z,10.30
2019-02-19T19:31:33.676Z,9.80
2019-02-19T19:34:01.433Z,10.35
2019-02-19T19:36:32.208Z,11.27
2019-02-19T19:39:04.400Z,10.83
2019-02-19T19:41:35.170Z,11.03
2019-02-19T19:44:05.927Z,10.43
2019-02-19T19:46:36.705Z,10.73
2019-02-19T19:49:07.470Z,10.50
2019-02-19T19:51:38.682Z,11.30
2019-02-19T19:54:09.546Z,11.63
2019-02-19T19:56:40.250Z,12.37
2019-02-19T19:59:11.026Z,10.57
2019-02-19T20:01:41.799Z,11.13
2019-02-19T20:04:12.579Z,12.40
2019-02-19T20:06:43.329Z,11.30
2019-02-19T20:09:14.115Z,11.80
2019-02-19T20:11:44.889Z,10.70
2019-02-19T20:14:15.662Z,12.20
2019-02-19T20:16:46.464Z,10.93
2019-02-19T20:19:17.286Z,11.70
2019-02-19T20:21:48.030Z,11.97
2019-02-19T20:24:18.799Z,14.07
2019-02-19T20:26:49.558Z,12.00
2019-02-19T20:29:20.332Z,12.70
2019-02-19T20:31:51.268Z,13.37
2019-02-19T20:34:22.038Z,12.23
2019-02-19T20:36:52.809Z,14.30
2019-02-19T20:39:23.598Z,13.60
2019-02-19T20:41:54.350Z,12.70
2019-02-19T20:44:25.116Z,13.80
2019-02-19T20:46:55.874Z,13.37
2019-02-19T20:49:26.658Z,12.53
2019-02-19T20:51:57.419Z,13.13
2019-02-19T20:54:28.211Z,13.47
2019-02-19T20:56:58.983Z,13.70
2019-02-19T20:59:29.760Z,13.90
2019-02-19T21:02:00.519Z,13.10
2019-02-19T21:04:31.329Z,14.47
2019-02-19T21:07:02.094Z,14.50
2019-02-19T21:09:43.147Z,15.27
2019-02-19T21:12:05.549Z,13.03
2019-02-19T21:17:37.104Z,15.23
2019-02-19T21:20:10.583Z,12.47
2019-02-19T21:22:41.399Z,13.05
2019-02-19T21:25:12.114Z,13.17
2019-02-19T21:27:42.883Z,12.37
2019-02-19T21:30:14.468Z,12.60
2019-02-19T21:32:48.296Z,14.60
2019-02-19T21:35:19.057Z,14.10
2019-02-19T21:37:49.808Z,13.07
2019-02-19T21:40:20.579Z,14.10
2019-02-19T21:42:51.338Z,15.37
2019-02-19T21:45:23.158Z,15.27
2019-02-19T21:47:53.939Z,13.28
2019-02-19T21:50:24.898Z,15.13
2019-02-19T21:52:55.939Z,14.27
2019-02-19T21:55:26.771Z,13.62
2019-02-19T21:57:57.528Z,14.67
2019-02-19T22:00:28.400Z,13.87
2019-02-19T22:02:59.176Z,14.47
2019-02-19T22:05:29.951Z,14.70
2019-02-19T22:08:00.726Z,15.30
2019-02-19T22:10:31.774Z,15.13
2019-02-19T22:13:02.635Z,15.08
2019-02-19T22:15:33.433Z,13.90
2019-02-19T22:18:04.352Z,14.20
2019-02-19T22:20:52.127Z,14.33
2019-02-19T22:23:22.889Z,13.93
2019-02-19T22:25:54.087Z,15.07
2019-02-19T22:28:24.861Z,14.78
2019-02-19T22:30:55.618Z,14.60
2019-02-19T22:33:26.384Z,15.00
2019-02-19T22:35:57.160Z,14.83
2019-02-19T22:38:27.917Z,14.47
2019-02-19T22:40:58.686Z,14.83
2019-02-19T22:43:29.444Z,16.53
2019-02-19T22:46:00.212Z,16.90
2019-02-19T22:48:30.977Z,14.00
2019-02-19T22:51:01.747Z,15.60
2019-02-19T22:53:37.217Z,15.30
2019-02-19T22:56:15.718Z,16.65
2019-02-19T22:58:46.623Z,15.30
2019-02-19T23:01:20.630Z,16.70
2019-02-19T23:03:51.389Z,16.15
2019-02-19T23:06:22.321Z,15.10
2019-02-19T23:08:53.112Z,17.00
2019-02-19T23:11:23.872Z,14.60
2019-02-19T23:13:54.793Z,15.80
2019-02-19T23:16:25.677Z,14.97
2019-02-19T23:18:56.515Z,15.00
2019-02-19T23:21:27.323Z,14.33
2019-02-19T23:23:58.042Z,16.00
2019-02-19T23:26:28.815Z,14.50
2019-02-19T23:28:59.595Z,14.37
2019-02-19T23:31:30.355Z,15.10
2019-02-19T23:34:01.117Z,14.57
2019-02-19T23:36:34.056Z,16.50
2019-02-19T23:39:05.313Z,15.23
2019-02-19T23:41:36.101Z,15.28
2019-02-19T23:44:06.859Z,13.53
2019-02-19T23:46:37.980Z,13.83
2019-02-19T23:49:08.745Z,14.55
2019-02-19T23:51:39.506Z,14.43
2019-02-19T23:54:10.338Z,14.53
2019-02-19T23:56:41.207Z,14.17
2019-02-19T23:59:11.992Z,14.50
